Clarksburg, Massachusetts
Current Conditions -  °F | °C
As of 10:52 PM on Thursday 18 Dec 2014 (Local Time) from KAQW Reporting Station
Overcast Overcast  
Wind Chill: 20°   Ceiling: 2100
Heat Index: 31°   Visibility: 10mi
Dew Point: 24°   Wind: 15mph
Humidity: 76%   Direction: 270°W
Pressure: 29.9"   Gusts: 22mph
Location:  42.6996°N, 73.0936°W
Report Text: KAQW 190352Z AUTO 27013G19KT 10SM OVC021 M01/M04 A2990 RMK AO2 SLP132 T10061044
Loading
Personal Weather Stations






























Interactive Weather Map New forecast layout! Learn more

10-Day Weather Forecast

Advertisements
Track Severe Weather on mobile